sensor_id;sensor_type;location;lat;lon;timestamp;P1;durP1;ratioP1;P2;durP2;ratioP2
67140;SDS011;54058;52.010;5.546;2022-07-18T00:00:29;4.03;;;2.92;;
67140;SDS011;54058;52.010;5.546;2022-07-18T00:02:55;5.10;;;3.28;;
67140;SDS011;54058;52.010;5.546;2022-07-18T00:05:20;5.60;;;3.05;;
67140;SDS011;54058;52.010;5.546;2022-07-18T00:07:46;6.40;;;3.05;;
67140;SDS011;54058;52.010;5.546;2022-07-18T00:10:12;7.07;;;3.08;;
67140;SDS011;54058;52.010;5.546;2022-07-18T00:12:38;5.07;;;3.00;;
67140;SDS011;54058;52.010;5.546;2022-07-18T00:15:03;8.23;;;3.35;;
67140;SDS011;54058;52.010;5.546;2022-07-18T00:17:30;4.70;;;3.33;;
67140;SDS011;54058;52.010;5.546;2022-07-18T00:19:56;11.68;;;3.45;;
67140;SDS011;54058;52.010;5.546;2022-07-18T00:22:22;7.18;;;3.22;;
67140;SDS011;54058;52.010;5.546;2022-07-18T00:24:47;5.47;;;3.33;;
67140;SDS011;54058;52.010;5.546;2022-07-18T00:27:13;10.25;;;3.58;;
67140;SDS011;54058;52.010;5.546;2022-07-18T00:29:38;6.10;;;3.70;;
67140;SDS011;54058;52.010;5.546;2022-07-18T00:32:05;5.15;;;3.33;;
67140;SDS011;54058;52.010;5.546;2022-07-18T00:34:32;7.78;;;3.40;;
67140;SDS011;54058;52.010;5.546;2022-07-18T00:36:59;7.43;;;3.97;;
67140;SDS011;54058;52.010;5.546;2022-07-18T00:39:25;8.50;;;3.60;;
67140;SDS011;54058;52.010;5.546;2022-07-18T00:41:51;5.68;;;3.40;;
67140;SDS011;54058;52.010;5.546;2022-07-18T00:44:20;7.47;;;3.22;;
67140;SDS011;54058;52.010;5.546;2022-07-18T00:46:51;6.72;;;3.63;;
67140;SDS011;54058;52.010;5.546;2022-07-18T00:49:18;6.68;;;3.38;;
67140;SDS011;54058;52.010;5.546;2022-07-18T00:51:44;8.88;;;3.70;;
67140;SDS011;54058;52.010;5.546;2022-07-18T00:54:11;6.45;;;3.38;;
67140;SDS011;54058;52.010;5.546;2022-07-18T00:56:37;7.25;;;3.90;;
67140;SDS011;54058;52.010;5.546;2022-07-18T00:59:03;5.93;;;3.15;;
67140;SDS011;54058;52.010;5.546;2022-07-18T01:01:28;7.70;;;3.28;;
67140;SDS011;54058;52.010;5.546;2022-07-18T01:04:15;15.05;;;4.00;;
67140;SDS011;54058;52.010;5.546;2022-07-18T01:06:47;11.68;;;4.03;;
67140;SDS011;54058;52.010;5.546;2022-07-18T01:09:15;6.50;;;3.75;;
67140;SDS011;54058;52.010;5.546;2022-07-18T01:11:43;8.70;;;3.63;;
67140;SDS011;54058;52.010;5.546;2022-07-18T01:14:10;8.25;;;4.70;;
67140;SDS011;54058;52.010;5.546;2022-07-18T01:16:36;7.28;;;4.00;;
67140;SDS011;54058;52.010;5.546;2022-07-18T01:19:02;13.32;;;4.25;;
67140;SDS011;54058;52.010;5.546;2022-07-18T01:21:28;6.90;;;3.60;;
67140;SDS011;54058;52.010;5.546;2022-07-18T01:23:54;8.95;;;4.05;;
67140;SDS011;54058;52.010;5.546;2022-07-18T01:26:20;6.15;;;3.90;;
67140;SDS011;54058;52.010;5.546;2022-07-18T01:28:45;8.70;;;4.47;;
67140;SDS011;54058;52.010;5.546;2022-07-18T01:31:12;5.97;;;4.15;;
67140;SDS011;54058;52.010;5.546;2022-07-18T01:33:38;8.53;;;3.60;;
67140;SDS011;54058;52.010;5.546;2022-07-18T01:36:04;7.78;;;3.60;;
67140;SDS011;54058;52.010;5.546;2022-07-18T01:38:31;7.07;;;3.85;;
67140;SDS011;54058;52.010;5.546;2022-07-18T01:40:57;9.48;;;4.07;;
67140;SDS011;54058;52.010;5.546;2022-07-18T01:43:24;7.45;;;4.05;;
67140;SDS011;54058;52.010;5.546;2022-07-18T01:45:50;8.82;;;4.20;;
67140;SDS011;54058;52.010;5.546;2022-07-18T01:48:16;9.77;;;3.90;;
67140;SDS011;54058;52.010;5.546;2022-07-18T01:50:42;5.78;;;3.65;;
67140;SDS011;54058;52.010;5.546;2022-07-18T01:53:08;7.43;;;3.75;;
67140;SDS011;54058;52.010;5.546;2022-07-18T01:55:33;6.95;;;4.35;;
67140;SDS011;54058;52.010;5.546;2022-07-18T01:57:59;7.18;;;4.43;;
67140;SDS011;54058;52.010;5.546;2022-07-18T02:00:24;6.40;;;3.72;;
67140;SDS011;54058;52.010;5.546;2022-07-18T02:02:50;9.07;;;4.30;;
67140;SDS011;54058;52.010;5.546;2022-07-18T02:05:16;8.75;;;4.28;;
67140;SDS011;54058;52.010;5.546;2022-07-18T02:07:42;11.50;;;4.82;;
67140;SDS011;54058;52.010;5.546;2022-07-18T02:10:08;11.63;;;4.93;;
67140;SDS011;54058;52.010;5.546;2022-07-18T02:12:36;10.63;;;4.63;;
67140;SDS011;54058;52.010;5.546;2022-07-18T02:15:03;6.35;;;3.75;;
67140;SDS011;54058;52.010;5.546;2022-07-18T02:19:56;5.43;;;3.80;;
67140;SDS011;54058;52.010;5.546;2022-07-18T02:22:21;6.43;;;4.10;;
67140;SDS011;54058;52.010;5.546;2022-07-18T02:24:48;6.93;;;3.80;;
67140;SDS011;54058;52.010;5.546;2022-07-18T02:27:13;5.32;;;3.30;;
67140;SDS011;54058;52.010;5.546;2022-07-18T02:29:39;7.22;;;3.92;;
67140;SDS011;54058;52.010;5.546;2022-07-18T02:32:04;7.10;;;3.78;;
67140;SDS011;54058;52.010;5.546;2022-07-18T02:34:30;5.63;;;3.40;;
67140;SDS011;54058;52.010;5.546;2022-07-18T02:36:56;7.20;;;3.47;;
67140;SDS011;54058;52.010;5.546;2022-07-18T02:39:22;6.30;;;4.00;;
67140;SDS011;54058;52.010;5.546;2022-07-18T02:41:47;7.78;;;3.90;;
67140;SDS011;54058;52.010;5.546;2022-07-18T02:44:13;10.23;;;3.90;;
67140;SDS011;54058;52.010;5.546;2022-07-18T02:46:39;6.78;;;3.60;;
67140;SDS011;54058;52.010;5.546;2022-07-18T02:49:05;5.60;;;3.10;;
67140;SDS011;54058;52.010;5.546;2022-07-18T02:51:31;8.43;;;3.80;;
67140;SDS011;54058;52.010;5.546;2022-07-18T02:53:56;11.25;;;3.60;;
67140;SDS011;54058;52.010;5.546;2022-07-18T02:56:22;6.20;;;3.42;;
67140;SDS011;54058;52.010;5.546;2022-07-18T02:58:48;6.57;;;3.47;;
67140;SDS011;54058;52.010;5.546;2022-07-18T03:01:13;5.40;;;3.50;;
67140;SDS011;54058;52.010;5.546;2022-07-18T03:03:39;8.27;;;3.30;;
67140;SDS011;54058;52.010;5.546;2022-07-18T03:06:04;6.78;;;3.33;;
67140;SDS011;54058;52.010;5.546;2022-07-18T03:08:30;5.53;;;3.20;;
67140;SDS011;54058;52.010;5.546;2022-07-18T03:10:55;9.13;;;2.97;;
67140;SDS011;54058;52.010;5.546;2022-07-18T03:13:21;4.78;;;3.03;;
67140;SDS011;54058;52.010;5.546;2022-07-18T03:15:47;5.35;;;3.33;;
67140;SDS011;54058;52.010;5.546;2022-07-18T03:18:12;7.00;;;2.97;;
67140;SDS011;54058;52.010;5.546;2022-07-18T03:20:38;3.83;;;2.75;;
67140;SDS011;54058;52.010;5.546;2022-07-18T03:23:04;7.13;;;3.40;;
67140;SDS011;54058;52.010;5.546;2022-07-18T03:25:31;5.38;;;3.08;;
67140;SDS011;54058;52.010;5.546;2022-07-18T03:27:56;5.95;;;3.20;;
67140;SDS011;54058;52.010;5.546;2022-07-18T03:30:22;5.70;;;3.00;;
67140;SDS011;54058;52.010;5.546;2022-07-18T03:32:48;5.40;;;3.40;;
67140;SDS011;54058;52.010;5.546;2022-07-18T03:35:13;5.13;;;3.20;;
67140;SDS011;54058;52.010;5.546;2022-07-18T03:37:39;7.03;;;2.83;;
67140;SDS011;54058;52.010;5.546;2022-07-18T03:40:05;5.25;;;3.10;;
67140;SDS011;54058;52.010;5.546;2022-07-18T03:42:31;4.27;;;3.17;;
67140;SDS011;54058;52.010;5.546;2022-07-18T03:44:57;4.55;;;2.90;;
67140;SDS011;54058;52.010;5.546;2022-07-18T03:47:22;6.25;;;3.05;;
67140;SDS011;54058;52.010;5.546;2022-07-18T03:49:48;9.48;;;3.13;;
67140;SDS011;54058;52.010;5.546;2022-07-18T03:52:13;5.43;;;3.03;;
67140;SDS011;54058;52.010;5.546;2022-07-18T03:54:39;4.82;;;2.60;;
67140;SDS011;54058;52.010;5.546;2022-07-18T03:57:05;4.28;;;2.70;;
67140;SDS011;54058;52.010;5.546;2022-07-18T03:59:30;6.05;;;2.58;;
67140;SDS011;54058;52.010;5.546;2022-07-18T04:01:56;6.63;;;3.58;;
67140;SDS011;54058;52.010;5.546;2022-07-18T04:04:21;7.22;;;2.90;;
67140;SDS011;54058;52.010;5.546;2022-07-18T04:06:47;5.22;;;2.90;;
67140;SDS011;54058;52.010;5.546;2022-07-18T04:09:13;3.53;;;2.88;;
67140;SDS011;54058;52.010;5.546;2022-07-18T04:11:38;5.90;;;2.50;;
67140;SDS011;54058;52.010;5.546;2022-07-18T04:14:04;5.50;;;2.40;;
67140;SDS011;54058;52.010;5.546;2022-07-18T04:16:30;3.10;;;2.58;;
67140;SDS011;54058;52.010;5.546;2022-07-18T04:18:55;4.78;;;3.10;;
67140;SDS011;54058;52.010;5.546;2022-07-18T04:21:21;5.90;;;2.92;;
67140;SDS011;54058;52.010;5.546;2022-07-18T04:23:47;2.92;;;2.63;;
67140;SDS011;54058;52.010;5.546;2022-07-18T04:26:12;4.45;;;2.70;;
67140;SDS011;54058;52.010;5.546;2022-07-18T04:28:38;5.40;;;2.75;;
67140;SDS011;54058;52.010;5.546;2022-07-18T04:31:04;5.07;;;3.28;;
67140;SDS011;54058;52.010;5.546;2022-07-18T04:33:29;5.90;;;2.88;;
67140;SDS011;54058;52.010;5.546;2022-07-18T04:35:55;5.68;;;2.92;;
67140;SDS011;54058;52.010;5.546;2022-07-18T04:38:20;6.25;;;3.08;;
67140;SDS011;54058;52.010;5.546;2022-07-18T04:40:46;4.65;;;3.10;;
67140;SDS011;54058;52.010;5.546;2022-07-18T04:43:12;6.90;;;2.50;;
67140;SDS011;54058;52.010;5.546;2022-07-18T04:45:37;5.78;;;2.80;;
67140;SDS011;54058;52.010;5.546;2022-07-18T04:48:03;6.17;;;3.07;;
67140;SDS011;54058;52.010;5.546;2022-07-18T04:50:30;6.47;;;2.90;;
67140;SDS011;54058;52.010;5.546;2022-07-18T04:52:57;9.45;;;3.65;;
67140;SDS011;54058;52.010;5.546;2022-07-18T04:55:24;5.50;;;2.80;;
67140;SDS011;54058;52.010;5.546;2022-07-18T05:00:19;4.60;;;3.00;;
67140;SDS011;54058;52.010;5.546;2022-07-18T05:02:47;9.00;;;3.58;;
67140;SDS011;54058;52.010;5.546;2022-07-18T05:05:15;12.35;;;4.28;;
67140;SDS011;54058;52.010;5.546;2022-07-18T05:07:43;6.43;;;3.35;;
67140;SDS011;54058;52.010;5.546;2022-07-18T05:10:10;6.90;;;3.63;;
67140;SDS011;54058;52.010;5.546;2022-07-18T05:12:37;10.68;;;3.90;;
67140;SDS011;54058;52.010;5.546;2022-07-18T05:15:05;6.78;;;3.63;;
67140;SDS011;54058;52.010;5.546;2022-07-18T05:17:32;7.70;;;4.03;;
67140;SDS011;54058;52.010;5.546;2022-07-18T05:19:57;7.27;;;3.30;;
67140;SDS011;54058;52.010;5.546;2022-07-18T05:22:23;7.20;;;3.63;;
67140;SDS011;54058;52.010;5.546;2022-07-18T05:24:49;11.90;;;4.23;;
67140;SDS011;54058;52.010;5.546;2022-07-18T05:27:15;16.00;;;4.17;;
67140;SDS011;54058;52.010;5.546;2022-07-18T05:29:40;15.37;;;4.90;;
67140;SDS011;54058;52.010;5.546;2022-07-18T05:32:06;9.63;;;4.40;;
67140;SDS011;54058;52.010;5.546;2022-07-18T05:34:32;12.53;;;4.00;;
67140;SDS011;54058;52.010;5.546;2022-07-18T05:36:58;7.97;;;4.07;;
67140;SDS011;54058;52.010;5.546;2022-07-18T05:39:24;10.48;;;4.30;;
67140;SDS011;54058;52.010;5.546;2022-07-18T05:41:50;17.57;;;4.10;;
67140;SDS011;54058;52.010;5.546;2022-07-18T05:44:17;12.15;;;3.75;;
67140;SDS011;54058;52.010;5.546;2022-07-18T05:46:44;7.35;;;3.70;;
67140;SDS011;54058;52.010;5.546;2022-07-18T05:49:11;14.02;;;4.30;;
67140;SDS011;54058;52.010;5.546;2022-07-18T05:51:37;18.10;;;3.63;;
67140;SDS011;54058;52.010;5.546;2022-07-18T05:54:02;7.87;;;4.23;;
67140;SDS011;54058;52.010;5.546;2022-07-18T05:56:28;9.67;;;4.47;;
67140;SDS011;54058;52.010;5.546;2022-07-18T05:58:54;9.47;;;4.07;;
67140;SDS011;54058;52.010;5.546;2022-07-18T06:01:19;12.63;;;4.23;;
67140;SDS011;54058;52.010;5.546;2022-07-18T06:03:48;16.53;;;4.93;;
67140;SDS011;54058;52.010;5.546;2022-07-18T06:06:14;13.27;;;3.35;;
67140;SDS011;54058;52.010;5.546;2022-07-18T06:08:40;8.30;;;3.75;;
67140;SDS011;54058;52.010;5.546;2022-07-18T06:11:07;8.75;;;3.83;;
67140;SDS011;54058;52.010;5.546;2022-07-18T06:13:37;14.93;;;3.55;;
67140;SDS011;54058;52.010;5.546;2022-07-18T06:16:04;9.35;;;4.18;;
67140;SDS011;54058;52.010;5.546;2022-07-18T06:18:31;16.13;;;4.05;;
67140;SDS011;54058;52.010;5.546;2022-07-18T06:20:57;10.23;;;3.72;;
67140;SDS011;54058;52.010;5.546;2022-07-18T06:23:23;14.07;;;4.13;;
67140;SDS011;54058;52.010;5.546;2022-07-18T06:25:49;7.53;;;4.03;;
67140;SDS011;54058;52.010;5.546;2022-07-18T06:28:15;5.30;;;3.03;;
67140;SDS011;54058;52.010;5.546;2022-07-18T06:30:40;16.27;;;4.47;;
67140;SDS011;54058;52.010;5.546;2022-07-18T06:33:06;7.50;;;3.80;;
67140;SDS011;54058;52.010;5.546;2022-07-18T06:35:33;11.13;;;4.20;;
67140;SDS011;54058;52.010;5.546;2022-07-18T06:37:59;12.27;;;4.22;;
67140;SDS011;54058;52.010;5.546;2022-07-18T06:40:25;14.77;;;4.23;;
67140;SDS011;54058;52.010;5.546;2022-07-18T06:42:51;10.33;;;3.50;;
67140;SDS011;54058;52.010;5.546;2022-07-18T06:45:17;9.05;;;3.92;;
67140;SDS011;54058;52.010;5.546;2022-07-18T06:47:43;13.35;;;4.65;;
67140;SDS011;54058;52.010;5.546;2022-07-18T06:50:10;7.05;;;4.03;;
67140;SDS011;54058;52.010;5.546;2022-07-18T06:52:38;25.50;;;4.28;;
67140;SDS011;54058;52.010;5.546;2022-07-18T06:55:07;12.77;;;4.20;;
67140;SDS011;54058;52.010;5.546;2022-07-18T06:57:33;10.77;;;3.92;;
67140;SDS011;54058;52.010;5.546;2022-07-18T06:59:59;7.57;;;3.97;;
67140;SDS011;54058;52.010;5.546;2022-07-18T07:02:25;11.73;;;3.93;;
67140;SDS011;54058;52.010;5.546;2022-07-18T07:04:50;10.13;;;3.65;;
67140;SDS011;54058;52.010;5.546;2022-07-18T07:07:16;10.30;;;3.70;;
67140;SDS011;54058;52.010;5.546;2022-07-18T07:09:42;14.73;;;3.75;;
67140;SDS011;54058;52.010;5.546;2022-07-18T07:12:07;11.48;;;3.45;;
67140;SDS011;54058;52.010;5.546;2022-07-18T07:14:34;18.50;;;2.85;;
67140;SDS011;54058;52.010;5.546;2022-07-18T07:17:01;15.95;;;3.00;;
67140;SDS011;54058;52.010;5.546;2022-07-18T07:19:27;11.98;;;2.95;;
67140;SDS011;54058;52.010;5.546;2022-07-18T07:21:53;8.27;;;2.35;;
67140;SDS011;54058;52.010;5.546;2022-07-18T07:24:19;12.70;;;2.70;;
67140;SDS011;54058;52.010;5.546;2022-07-18T07:26:44;6.95;;;2.42;;
67140;SDS011;54058;52.010;5.546;2022-07-18T07:29:10;3.83;;;2.25;;
67140;SDS011;54058;52.010;5.546;2022-07-18T07:31:36;5.63;;;2.13;;
67140;SDS011;54058;52.010;5.546;2022-07-18T07:34:02;8.10;;;2.35;;
67140;SDS011;54058;52.010;5.546;2022-07-18T07:41:20;5.65;;;2.25;;
67140;SDS011;54058;52.010;5.546;2022-07-18T07:43:45;5.47;;;1.92;;
67140;SDS011;54058;52.010;5.546;2022-07-18T07:46:11;6.53;;;2.08;;
67140;SDS011;54058;52.010;5.546;2022-07-18T07:48:37;8.30;;;2.65;;
67140;SDS011;54058;52.010;5.546;2022-07-18T07:51:03;7.65;;;2.17;;
67140;SDS011;54058;52.010;5.546;2022-07-18T07:53:30;5.63;;;1.90;;
67140;SDS011;54058;52.010;5.546;2022-07-18T07:55:56;10.05;;;2.75;;
67140;SDS011;54058;52.010;5.546;2022-07-18T07:58:22;8.07;;;2.30;;
67140;SDS011;54058;52.010;5.546;2022-07-18T08:00:47;5.27;;;2.17;;
67140;SDS011;54058;52.010;5.546;2022-07-18T08:03:13;7.50;;;2.40;;
67140;SDS011;54058;52.010;5.546;2022-07-18T08:05:44;8.43;;;2.40;;
67140;SDS011;54058;52.010;5.546;2022-07-18T08:08:11;5.90;;;2.00;;
67140;SDS011;54058;52.010;5.546;2022-07-18T08:10:36;12.00;;;2.78;;
67140;SDS011;54058;52.010;5.546;2022-07-18T08:13:03;3.35;;;2.17;;
67140;SDS011;54058;52.010;5.546;2022-07-18T08:15:29;5.07;;;1.93;;
67140;SDS011;54058;52.010;5.546;2022-07-18T08:17:55;7.70;;;2.38;;
67140;SDS011;54058;52.010;5.546;2022-07-18T08:20:21;5.07;;;2.13;;
67140;SDS011;54058;52.010;5.546;2022-07-18T08:25:17;6.18;;;2.08;;
67140;SDS011;54058;52.010;5.546;2022-07-18T08:27:44;6.15;;;2.08;;
67140;SDS011;54058;52.010;5.546;2022-07-18T08:30:09;9.67;;;2.20;;
67140;SDS011;54058;52.010;5.546;2022-07-18T08:32:35;3.10;;;1.85;;
67140;SDS011;54058;52.010;5.546;2022-07-18T08:35:01;8.35;;;2.55;;
67140;SDS011;54058;52.010;5.546;2022-07-18T08:37:26;8.55;;;2.38;;
67140;SDS011;54058;52.010;5.546;2022-07-18T08:39:52;6.63;;;2.35;;
67140;SDS011;54058;52.010;5.546;2022-07-18T08:42:18;8.25;;;2.20;;
67140;SDS011;54058;52.010;5.546;2022-07-18T08:44:48;6.85;;;2.15;;
67140;SDS011;54058;52.010;5.546;2022-07-18T08:47:15;6.47;;;2.25;;
67140;SDS011;54058;52.010;5.546;2022-07-18T08:49:42;6.32;;;2.55;;
67140;SDS011;54058;52.010;5.546;2022-07-18T08:52:12;8.05;;;1.92;;
67140;SDS011;54058;52.010;5.546;2022-07-18T08:54:39;11.80;;;2.20;;
67140;SDS011;54058;52.010;5.546;2022-07-18T08:59:30;5.20;;;2.20;;
67140;SDS011;54058;52.010;5.546;2022-07-18T09:04:31;3.83;;;1.85;;
67140;SDS011;54058;52.010;5.546;2022-07-18T09:07:04;8.85;;;2.20;;
67140;SDS011;54058;52.010;5.546;2022-07-18T09:09:32;5.30;;;1.80;;
67140;SDS011;54058;52.010;5.546;2022-07-18T09:12:02;6.75;;;2.13;;
67140;SDS011;54058;52.010;5.546;2022-07-18T09:19:40;9.02;;;2.03;;
67140;SDS011;54058;52.010;5.546;2022-07-18T09:22:14;5.00;;;1.98;;
67140;SDS011;54058;52.010;5.546;2022-07-18T09:25:01;3.65;;;2.33;;
67140;SDS011;54058;52.010;5.546;2022-07-18T09:27:31;9.15;;;1.90;;
67140;SDS011;54058;52.010;5.546;2022-07-18T09:30:09;8.52;;;2.20;;
67140;SDS011;54058;52.010;5.546;2022-07-18T09:32:45;4.85;;;1.90;;
67140;SDS011;54058;52.010;5.546;2022-07-18T09:35:32;9.10;;;2.70;;
67140;SDS011;54058;52.010;5.546;2022-07-18T09:38:06;6.57;;;2.63;;
67140;SDS011;54058;52.010;5.546;2022-07-18T09:40:51;5.30;;;2.50;;
67140;SDS011;54058;52.010;5.546;2022-07-18T09:43:19;4.95;;;2.22;;
67140;SDS011;54058;52.010;5.546;2022-07-18T09:45:50;11.57;;;2.58;;
67140;SDS011;54058;52.010;5.546;2022-07-18T09:48:22;6.97;;;2.67;;
67140;SDS011;54058;52.010;5.546;2022-07-18T09:55:59;10.43;;;2.25;;
67140;SDS011;54058;52.010;5.546;2022-07-18T09:58:36;6.15;;;2.10;;
67140;SDS011;54058;52.010;5.546;2022-07-18T10:01:04;5.55;;;2.42;;
67140;SDS011;54058;52.010;5.546;2022-07-18T10:03:31;4.85;;;2.53;;
67140;SDS011;54058;52.010;5.546;2022-07-18T10:05:58;5.28;;;2.53;;
67140;SDS011;54058;52.010;5.546;2022-07-18T10:08:25;9.07;;;2.92;;
67140;SDS011;54058;52.010;5.546;2022-07-18T10:10:53;9.00;;;2.65;;
67140;SDS011;54058;52.010;5.546;2022-07-18T10:13:20;5.32;;;2.35;;
67140;SDS011;54058;52.010;5.546;2022-07-18T10:15:47;8.32;;;2.67;;
67140;SDS011;54058;52.010;5.546;2022-07-18T10:18:19;5.95;;;2.20;;
67140;SDS011;54058;52.010;5.546;2022-07-18T10:23:27;7.43;;;2.20;;
67140;SDS011;54058;52.010;5.546;2022-07-18T10:26:13;6.43;;;2.60;;
67140;SDS011;54058;52.010;5.546;2022-07-18T10:31:38;3.42;;;2.80;;
67140;SDS011;54058;52.010;5.546;2022-07-18T10:37:23;11.88;;;5.30;;
67140;SDS011;54058;52.010;5.546;2022-07-18T10:39:19;20.02;;;3.92;;
67140;SDS011;54058;52.010;5.546;2022-07-18T10:47:05;8.05;;;3.80;;
67140;SDS011;54058;52.010;5.546;2022-07-18T11:00:18;5.35;;;2.30;;
67140;SDS011;54058;52.010;5.546;2022-07-18T11:02:47;4.50;;;2.60;;
67140;SDS011;54058;52.010;5.546;2022-07-18T11:05:40;6.68;;;2.38;;
67140;SDS011;54058;52.010;5.546;2022-07-18T11:08:18;19.65;;;2.88;;
67140;SDS011;54058;52.010;5.546;2022-07-18T11:18:23;6.43;;;1.90;;
67140;SDS011;54058;52.010;5.546;2022-07-18T11:20:50;3.67;;;1.77;;
67140;SDS011;54058;52.010;5.546;2022-07-18T11:25:43;3.40;;;2.53;;
67140;SDS011;54058;52.010;5.546;2022-07-18T11:28:11;5.22;;;2.90;;
67140;SDS011;54058;52.010;5.546;2022-07-18T11:30:38;10.88;;;3.25;;
67140;SDS011;54058;52.010;5.546;2022-07-18T11:33:04;7.32;;;3.05;;
67140;SDS011;54058;52.010;5.546;2022-07-18T11:35:31;8.93;;;2.40;;
67140;SDS011;54058;52.010;5.546;2022-07-18T11:37:57;21.85;;;2.80;;
67140;SDS011;54058;52.010;5.546;2022-07-18T11:40:29;8.57;;;3.00;;
67140;SDS011;54058;52.010;5.546;2022-07-18T11:42:56;4.03;;;1.98;;
67140;SDS011;54058;52.010;5.546;2022-07-18T11:45:22;8.75;;;2.22;;
67140;SDS011;54058;52.010;5.546;2022-07-18T11:47:51;4.75;;;1.90;;
67140;SDS011;54058;52.010;5.546;2022-07-18T11:50:18;7.18;;;1.80;;
67140;SDS011;54058;52.010;5.546;2022-07-18T11:53:02;9.52;;;1.80;;
67140;SDS011;54058;52.010;5.546;2022-07-18T11:55:34;10.60;;;1.70;;
67140;SDS011;54058;52.010;5.546;2022-07-18T11:58:08;7.03;;;2.05;;
67140;SDS011;54058;52.010;5.546;2022-07-18T12:00:38;3.05;;;1.70;;
67140;SDS011;54058;52.010;5.546;2022-07-18T12:05:45;4.22;;;1.95;;
67140;SDS011;54058;52.010;5.546;2022-07-18T12:22:20;2.83;;;2.20;;
67140;SDS011;54058;52.010;5.546;2022-07-18T12:24:36;2.75;;;2.20;;
67140;SDS011;54058;52.010;5.546;2022-07-18T12:27:07;7.70;;;3.30;;
67140;SDS011;54058;52.010;5.546;2022-07-18T12:35:32;11.88;;;3.67;;
67140;SDS011;54058;52.010;5.546;2022-07-18T12:38:07;4.00;;;2.38;;
67140;SDS011;54058;52.010;5.546;2022-07-18T12:46:02;7.35;;;2.50;;
67140;SDS011;54058;52.010;5.546;2022-07-18T12:48:31;9.55;;;2.80;;
67140;SDS011;54058;52.010;5.546;2022-07-18T12:50:59;7.55;;;2.80;;
67140;SDS011;54058;52.010;5.546;2022-07-18T12:53:26;7.93;;;2.80;;
67140;SDS011;54058;52.010;5.546;2022-07-18T12:55:52;7.32;;;2.33;;
67140;SDS011;54058;52.010;5.546;2022-07-18T12:58:19;5.57;;;1.98;;
67140;SDS011;54058;52.010;5.546;2022-07-18T13:00:45;3.55;;;1.98;;
67140;SDS011;54058;52.010;5.546;2022-07-18T13:03:12;6.43;;;2.10;;
67140;SDS011;54058;52.010;5.546;2022-07-18T13:05:39;4.85;;;1.80;;
67140;SDS011;54058;52.010;5.546;2022-07-18T13:08:05;4.90;;;2.05;;
67140;SDS011;54058;52.010;5.546;2022-07-18T13:10:35;3.92;;;1.70;;
67140;SDS011;54058;52.010;5.546;2022-07-18T13:13:03;6.53;;;1.85;;
67140;SDS011;54058;52.010;5.546;2022-07-18T13:15:29;4.65;;;1.45;;
67140;SDS011;54058;52.010;5.546;2022-07-18T13:17:55;4.72;;;1.70;;
67140;SDS011;54058;52.010;5.546;2022-07-18T13:20:21;2.67;;;1.70;;
67140;SDS011;54058;52.010;5.546;2022-07-18T13:22:46;4.00;;;1.70;;
67140;SDS011;54058;52.010;5.546;2022-07-18T13:25:12;8.57;;;1.80;;
67140;SDS011;54058;52.010;5.546;2022-07-18T13:27:38;4.05;;;1.73;;
67140;SDS011;54058;52.010;5.546;2022-07-18T13:30:04;3.42;;;1.60;;
67140;SDS011;54058;52.010;5.546;2022-07-18T13:32:31;3.65;;;1.90;;
67140;SDS011;54058;52.010;5.546;2022-07-18T13:34:57;3.00;;;1.70;;
67140;SDS011;54058;52.010;5.546;2022-07-18T13:37:23;3.40;;;1.60;;
67140;SDS011;54058;52.010;5.546;2022-07-18T13:39:49;3.83;;;1.52;;
67140;SDS011;54058;52.010;5.546;2022-07-18T13:42:15;8.25;;;1.90;;
67140;SDS011;54058;52.010;5.546;2022-07-18T13:44:41;6.32;;;2.05;;
67140;SDS011;54058;52.010;5.546;2022-07-18T13:47:10;4.78;;;1.70;;
67140;SDS011;54058;52.010;5.546;2022-07-18T13:49:36;2.17;;;1.42;;
67140;SDS011;54058;52.010;5.546;2022-07-18T13:52:02;3.40;;;1.85;;
67140;SDS011;54058;52.010;5.546;2022-07-18T13:54:27;2.95;;;1.80;;
67140;SDS011;54058;52.010;5.546;2022-07-18T13:56:53;6.03;;;1.55;;
67140;SDS011;54058;52.010;5.546;2022-07-18T13:59:18;7.68;;;1.90;;
67140;SDS011;54058;52.010;5.546;2022-07-18T14:01:44;3.30;;;1.60;;
67140;SDS011;54058;52.010;5.546;2022-07-18T14:04:10;7.95;;;1.90;;
67140;SDS011;54058;52.010;5.546;2022-07-18T14:06:35;4.78;;;1.63;;
67140;SDS011;54058;52.010;5.546;2022-07-18T14:09:04;7.43;;;1.67;;
67140;SDS011;54058;52.010;5.546;2022-07-18T14:11:31;8.70;;;1.80;;
67140;SDS011;54058;52.010;5.546;2022-07-18T14:14:00;5.63;;;1.63;;
67140;SDS011;54058;52.010;5.546;2022-07-18T14:16:27;8.18;;;1.58;;
67140;SDS011;54058;52.010;5.546;2022-07-18T14:18:52;4.47;;;1.83;;
67140;SDS011;54058;52.010;5.546;2022-07-18T14:21:18;11.48;;;2.15;;
67140;SDS011;54058;52.010;5.546;2022-07-18T14:23:44;2.00;;;1.42;;
67140;SDS011;54058;52.010;5.546;2022-07-18T14:26:09;2.90;;;1.67;;
67140;SDS011;54058;52.010;5.546;2022-07-18T14:28:35;7.32;;;1.60;;
67140;SDS011;54058;52.010;5.546;2022-07-18T14:31:00;10.20;;;2.00;;
67140;SDS011;54058;52.010;5.546;2022-07-18T14:33:26;5.07;;;1.52;;
67140;SDS011;54058;52.010;5.546;2022-07-18T14:35:52;5.93;;;1.63;;
67140;SDS011;54058;52.010;5.546;2022-07-18T14:38:17;3.38;;;1.50;;
67140;SDS011;54058;52.010;5.546;2022-07-18T14:40:43;3.70;;;1.90;;
67140;SDS011;54058;52.010;5.546;2022-07-18T14:43:09;6.70;;;1.70;;
67140;SDS011;54058;52.010;5.546;2022-07-18T14:45:34;2.38;;;1.50;;
67140;SDS011;54058;52.010;5.546;2022-07-18T14:48:00;6.72;;;1.50;;
67140;SDS011;54058;52.010;5.546;2022-07-18T14:50:26;3.25;;;1.70;;
67140;SDS011;54058;52.010;5.546;2022-07-18T14:52:52;3.97;;;1.60;;
67140;SDS011;54058;52.010;5.546;2022-07-18T14:55:17;2.33;;;1.88;;
67140;SDS011;54058;52.010;5.546;2022-07-18T14:57:43;7.35;;;1.60;;
67140;SDS011;54058;52.010;5.546;2022-07-18T15:00:09;4.03;;;1.80;;
67140;SDS011;54058;52.010;5.546;2022-07-18T15:02:36;6.50;;;2.00;;
67140;SDS011;54058;52.010;5.546;2022-07-18T15:05:03;3.35;;;1.90;;
67140;SDS011;54058;52.010;5.546;2022-07-18T15:07:29;3.47;;;1.58;;
67140;SDS011;54058;52.010;5.546;2022-07-18T15:09:54;3.20;;;1.60;;
67140;SDS011;54058;52.010;5.546;2022-07-18T15:12:20;5.55;;;1.60;;
67140;SDS011;54058;52.010;5.546;2022-07-18T15:14:46;7.00;;;1.77;;
67140;SDS011;54058;52.010;5.546;2022-07-18T15:17:12;2.47;;;1.65;;
67140;SDS011;54058;52.010;5.546;2022-07-18T15:19:37;4.65;;;2.00;;
67140;SDS011;54058;52.010;5.546;2022-07-18T15:22:03;2.63;;;1.60;;
67140;SDS011;54058;52.010;5.546;2022-07-18T15:24:30;3.88;;;1.70;;
67140;SDS011;54058;52.010;5.546;2022-07-18T15:26:56;3.80;;;1.60;;
67140;SDS011;54058;52.010;5.546;2022-07-18T15:29:22;5.45;;;2.00;;
67140;SDS011;54058;52.010;5.546;2022-07-18T15:31:48;3.88;;;1.85;;
67140;SDS011;54058;52.010;5.546;2022-07-18T15:34:13;3.55;;;1.85;;
67140;SDS011;54058;52.010;5.546;2022-07-18T15:36:39;5.32;;;1.95;;
67140;SDS011;54058;52.010;5.546;2022-07-18T15:39:04;3.15;;;2.25;;
67140;SDS011;54058;52.010;5.546;2022-07-18T15:41:30;3.60;;;1.75;;
67140;SDS011;54058;52.010;5.546;2022-07-18T15:43:56;9.43;;;2.00;;
67140;SDS011;54058;52.010;5.546;2022-07-18T15:46:22;4.43;;;2.03;;
67140;SDS011;54058;52.010;5.546;2022-07-18T15:48:47;5.05;;;1.90;;
67140;SDS011;54058;52.010;5.546;2022-07-18T15:51:13;7.78;;;2.15;;
67140;SDS011;54058;52.010;5.546;2022-07-18T15:53:39;5.40;;;1.75;;
67140;SDS011;54058;52.010;5.546;2022-07-18T15:56:05;3.47;;;1.77;;
67140;SDS011;54058;52.010;5.546;2022-07-18T15:58:30;6.28;;;2.17;;
67140;SDS011;54058;52.010;5.546;2022-07-18T16:00:57;6.50;;;1.80;;
67140;SDS011;54058;52.010;5.546;2022-07-18T16:03:23;2.13;;;1.60;;
67140;SDS011;54058;52.010;5.546;2022-07-18T16:05:49;9.23;;;2.00;;
67140;SDS011;54058;52.010;5.546;2022-07-18T16:08:15;4.60;;;1.98;;
67140;SDS011;54058;52.010;5.546;2022-07-18T16:10:41;1.88;;;1.60;;
67140;SDS011;54058;52.010;5.546;2022-07-18T16:15:33;1.95;;;1.55;;